sensor_id;sensor_type;location;lat;lon;timestamp;temperature;humidity
2453;DHT22;1238;47.994;7.854;2022-07-03T00:02:25;22.70;99.90
2453;DHT22;1238;47.994;7.854;2022-07-03T00:04:57;19.40;99.90
2453;DHT22;1238;47.994;7.854;2022-07-03T00:07:30;19.60;99.90
2453;DHT22;1238;47.994;7.854;2022-07-03T00:10:03;19.50;99.90
2453;DHT22;1238;47.994;7.854;2022-07-03T00:12:35;19.60;99.90
2453;DHT22;1238;47.994;7.854;2022-07-03T00:15:08;19.60;99.90
2453;DHT22;1238;47.994;7.854;2022-07-03T00:17:40;19.50;99.90
2453;DHT22;1238;47.994;7.854;2022-07-03T00:20:12;19.40;99.90
2453;DHT22;1238;47.994;7.854;2022-07-03T00:22:45;20.30;99.90
2453;DHT22;1238;47.994;7.854;2022-07-03T00:25:18;19.40;99.90
2453;DHT22;1238;47.994;7.854;2022-07-03T00:27:52;19.40;99.90
2453;DHT22;1238;47.994;7.854;2022-07-03T00:30:24;19.20;99.90
2453;DHT22;1238;47.994;7.854;2022-07-03T00:32:59;19.40;99.90
2453;DHT22;1238;47.994;7.854;2022-07-03T00:35:34;19.20;99.90
2453;DHT22;1238;47.994;7.854;2022-07-03T00:38:07;19.30;99.90
2453;DHT22;1238;47.994;7.854;2022-07-03T00:40:39;19.50;99.90
2453;DHT22;1238;47.994;7.854;2022-07-03T00:43:13;19.40;99.90
2453;DHT22;1238;47.994;7.854;2022-07-03T00:45:48;19.30;99.90
2453;DHT22;1238;47.994;7.854;2022-07-03T00:48:21;19.10;99.90
2453;DHT22;1238;47.994;7.854;2022-07-03T00:50:53;19.20;99.90
2453;DHT22;1238;47.994;7.854;2022-07-03T00:53:32;19.30;99.90
2453;DHT22;1238;47.994;7.854;2022-07-03T00:56:05;19.80;99.90
2453;DHT22;1238;47.994;7.854;2022-07-03T00:58:38;19.00;99.90
2453;DHT22;1238;47.994;7.854;2022-07-03T01:01:16;19.30;99.90
2453;DHT22;1238;47.994;7.854;2022-07-03T01:07:11;19.00;99.90
2453;DHT22;1238;47.994;7.854;2022-07-03T01:10:00;19.20;99.90
2453;DHT22;1238;47.994;7.854;2022-07-03T01:21:15;18.90;99.90
2453;DHT22;1238;47.994;7.854;2022-07-03T01:26:30;18.90;99.90
2453;DHT22;1238;47.994;7.854;2022-07-03T01:29:09;19.00;99.90
2453;DHT22;1238;47.994;7.854;2022-07-03T01:31:47;18.80;99.90
2453;DHT22;1238;47.994;7.854;2022-07-03T01:34:22;18.80;99.90
2453;DHT22;1238;47.994;7.854;2022-07-03T01:36:58;18.90;99.90
2453;DHT22;1238;47.994;7.854;2022-07-03T01:39:34;19.10;99.90
2453;DHT22;1238;47.994;7.854;2022-07-03T01:42:28;18.50;99.90
2453;DHT22;1238;47.994;7.854;2022-07-03T01:45:02;18.50;99.90
2453;DHT22;1238;47.994;7.854;2022-07-03T01:47:35;18.50;99.90
2453;DHT22;1238;47.994;7.854;2022-07-03T01:50:12;18.20;99.90
2453;DHT22;1238;47.994;7.854;2022-07-03T01:52:45;18.50;99.90
2453;DHT22;1238;47.994;7.854;2022-07-03T01:55:18;18.50;99.90
2453;DHT22;1238;47.994;7.854;2022-07-03T01:57:51;18.50;99.90
2453;DHT22;1238;47.994;7.854;2022-07-03T02:00:23;18.40;99.90
2453;DHT22;1238;47.994;7.854;2022-07-03T02:03:01;18.40;99.90
2453;DHT22;1238;47.994;7.854;2022-07-03T02:05:43;18.40;99.90
2453;DHT22;1238;47.994;7.854;2022-07-03T02:08:36;18.40;99.90
2453;DHT22;1238;47.994;7.854;2022-07-03T02:11:17;18.40;99.90
2453;DHT22;1238;47.994;7.854;2022-07-03T02:17:01;18.90;99.90
2453;DHT22;1238;47.994;7.854;2022-07-03T02:22:31;18.60;99.90
2453;DHT22;1238;47.994;7.854;2022-07-03T02:25:13;18.50;99.90
2453;DHT22;1238;47.994;7.854;2022-07-03T02:28:03;18.30;99.90
2453;DHT22;1238;47.994;7.854;2022-07-03T02:30:36;18.40;99.90
2453;DHT22;1238;47.994;7.854;2022-07-03T02:33:12;18.50;99.90
2453;DHT22;1238;47.994;7.854;2022-07-03T02:35:47;18.50;99.90
2453;DHT22;1238;47.994;7.854;2022-07-03T02:38:20;21.00;99.90
2453;DHT22;1238;47.994;7.854;2022-07-03T02:43:58;18.40;99.90
2453;DHT22;1238;47.994;7.854;2022-07-03T02:46:52;18.40;99.90
2453;DHT22;1238;47.994;7.854;2022-07-03T03:00:59;18.30;99.90
2453;DHT22;1238;47.994;7.854;2022-07-03T03:03:37;18.10;99.90
2453;DHT22;1238;47.994;7.854;2022-07-03T03:06:14;18.20;99.90
2453;DHT22;1238;47.994;7.854;2022-07-03T03:08:48;18.40;99.90
2453;DHT22;1238;47.994;7.854;2022-07-03T03:11:44;18.10;99.90
2453;DHT22;1238;47.994;7.854;2022-07-03T03:14:20;18.20;99.90
2453;DHT22;1238;47.994;7.854;2022-07-03T03:16:53;18.10;99.90
2453;DHT22;1238;47.994;7.854;2022-07-03T03:19:25;17.90;99.90
2453;DHT22;1238;47.994;7.854;2022-07-03T03:24:38;17.70;99.90
2453;DHT22;1238;47.994;7.854;2022-07-03T03:27:10;18.20;99.90
2453;DHT22;1238;47.994;7.854;2022-07-03T03:29:43;17.20;99.90
2453;DHT22;1238;47.994;7.854;2022-07-03T03:32:16;17.10;99.90
2453;DHT22;1238;47.994;7.854;2022-07-03T03:34:49;16.80;99.90
2453;DHT22;1238;47.994;7.854;2022-07-03T03:37:21;17.20;99.90
2453;DHT22;1238;47.994;7.854;2022-07-03T03:39:54;17.50;99.90
2453;DHT22;1238;47.994;7.854;2022-07-03T03:42:26;17.70;99.90
2453;DHT22;1238;47.994;7.854;2022-07-03T03:44:58;17.40;99.90
2453;DHT22;1238;47.994;7.854;2022-07-03T03:47:30;17.70;99.90
2453;DHT22;1238;47.994;7.854;2022-07-03T03:50:03;17.90;99.90
2453;DHT22;1238;47.994;7.854;2022-07-03T03:52:35;18.30;99.90
2453;DHT22;1238;47.994;7.854;2022-07-03T03:55:07;18.00;99.90
2453;DHT22;1238;47.994;7.854;2022-07-03T03:57:41;18.30;99.90
2453;DHT22;1238;47.994;7.854;2022-07-03T04:00:13;17.80;99.90
2453;DHT22;1238;47.994;7.854;2022-07-03T04:02:45;18.20;99.90
2453;DHT22;1238;47.994;7.854;2022-07-03T04:05:18;18.00;99.90
2453;DHT22;1238;47.994;7.854;2022-07-03T04:07:50;18.20;99.90
2453;DHT22;1238;47.994;7.854;2022-07-03T04:10:22;18.30;99.90
2453;DHT22;1238;47.994;7.854;2022-07-03T04:12:54;18.20;99.90
2453;DHT22;1238;47.994;7.854;2022-07-03T04:15:26;18.30;99.90
2453;DHT22;1238;47.994;7.854;2022-07-03T04:17:58;18.10;99.90
2453;DHT22;1238;47.994;7.854;2022-07-03T04:20:30;17.80;99.90
2453;DHT22;1238;47.994;7.854;2022-07-03T04:23:03;18.60;99.90
2453;DHT22;1238;47.994;7.854;2022-07-03T04:25:35;17.80;99.90
2453;DHT22;1238;47.994;7.854;2022-07-03T04:28:08;17.70;99.90
2453;DHT22;1238;47.994;7.854;2022-07-03T04:30:51;18.00;99.90
2453;DHT22;1238;47.994;7.854;2022-07-03T04:33:23;18.30;99.90
2453;DHT22;1238;47.994;7.854;2022-07-03T04:35:55;18.00;99.90
2453;DHT22;1238;47.994;7.854;2022-07-03T04:38:27;18.00;99.90
2453;DHT22;1238;47.994;7.854;2022-07-03T04:40:59;18.00;99.90
2453;DHT22;1238;47.994;7.854;2022-07-03T04:43:32;18.30;99.90
2453;DHT22;1238;47.994;7.854;2022-07-03T04:46:04;18.30;99.90
2453;DHT22;1238;47.994;7.854;2022-07-03T04:48:36;18.10;99.90
2453;DHT22;1238;47.994;7.854;2022-07-03T04:51:08;18.30;99.90
2453;DHT22;1238;47.994;7.854;2022-07-03T04:53:41;18.40;99.90
2453;DHT22;1238;47.994;7.854;2022-07-03T04:56:13;18.10;99.90
2453;DHT22;1238;47.994;7.854;2022-07-03T04:58:45;18.80;99.90
2453;DHT22;1238;47.994;7.854;2022-07-03T05:01:17;18.00;99.90
2453;DHT22;1238;47.994;7.854;2022-07-03T05:03:49;18.00;99.90
2453;DHT22;1238;47.994;7.854;2022-07-03T05:06:22;18.00;99.90
2453;DHT22;1238;47.994;7.854;2022-07-03T05:08:54;18.30;99.90
2453;DHT22;1238;47.994;7.854;2022-07-03T05:11:26;18.10;99.90
2453;DHT22;1238;47.994;7.854;2022-07-03T05:13:58;18.50;99.90
2453;DHT22;1238;47.994;7.854;2022-07-03T05:16:30;19.60;99.90
2453;DHT22;1238;47.994;7.854;2022-07-03T05:19:03;20.70;99.90
2453;DHT22;1238;47.994;7.854;2022-07-03T05:21:35;18.30;99.90
2453;DHT22;1238;47.994;7.854;2022-07-03T05:24:07;18.50;99.90
2453;DHT22;1238;47.994;7.854;2022-07-03T05:26:43;18.70;99.90
2453;DHT22;1238;47.994;7.854;2022-07-03T05:29:16;18.60;99.90
2453;DHT22;1238;47.994;7.854;2022-07-03T05:31:48;18.60;99.90
2453;DHT22;1238;47.994;7.854;2022-07-03T05:34:20;19.10;99.90
2453;DHT22;1238;47.994;7.854;2022-07-03T05:36:52;19.30;99.90
2453;DHT22;1238;47.994;7.854;2022-07-03T05:39:26;18.70;99.90
2453;DHT22;1238;47.994;7.854;2022-07-03T05:42:04;18.60;99.90
2453;DHT22;1238;47.994;7.854;2022-07-03T05:44:37;19.00;99.90
2453;DHT22;1238;47.994;7.854;2022-07-03T05:47:09;18.80;99.90
2453;DHT22;1238;47.994;7.854;2022-07-03T05:49:41;18.80;99.90
2453;DHT22;1238;47.994;7.854;2022-07-03T05:52:14;19.70;99.90
2453;DHT22;1238;47.994;7.854;2022-07-03T05:54:46;19.50;99.90
2453;DHT22;1238;47.994;7.854;2022-07-03T05:57:18;19.40;99.90
2453;DHT22;1238;47.994;7.854;2022-07-03T05:59:52;20.30;99.90
2453;DHT22;1238;47.994;7.854;2022-07-03T06:02:24;19.60;99.90
2453;DHT22;1238;47.994;7.854;2022-07-03T06:04:56;19.60;99.90
2453;DHT22;1238;47.994;7.854;2022-07-03T06:07:28;19.70;99.90
2453;DHT22;1238;47.994;7.854;2022-07-03T06:10:00;19.50;99.90
2453;DHT22;1238;47.994;7.854;2022-07-03T06:12:32;20.40;99.90
2453;DHT22;1238;47.994;7.854;2022-07-03T06:15:05;20.20;99.90
2453;DHT22;1238;47.994;7.854;2022-07-03T06:17:37;19.50;99.90
2453;DHT22;1238;47.994;7.854;2022-07-03T06:20:10;19.30;99.90
2453;DHT22;1238;47.994;7.854;2022-07-03T06:22:42;19.40;99.90
2453;DHT22;1238;47.994;7.854;2022-07-03T06:25:15;19.40;99.90
2453;DHT22;1238;47.994;7.854;2022-07-03T06:27:47;19.70;99.90
2453;DHT22;1238;47.994;7.854;2022-07-03T06:30:19;19.90;99.90
2453;DHT22;1238;47.994;7.854;2022-07-03T06:32:51;20.00;99.90
2453;DHT22;1238;47.994;7.854;2022-07-03T06:35:23;20.50;99.90
2453;DHT22;1238;47.994;7.854;2022-07-03T06:38:01;20.30;99.90
2453;DHT22;1238;47.994;7.854;2022-07-03T06:43:05;23.30;99.90
2453;DHT22;1238;47.994;7.854;2022-07-03T06:45:37;26.10;98.90
2453;DHT22;1238;47.994;7.854;2022-07-03T06:48:10;27.90;95.10
2453;DHT22;1238;47.994;7.854;2022-07-03T06:50:42;29.00;92.10
2453;DHT22;1238;47.994;7.854;2022-07-03T06:53:14;30.50;88.20
2453;DHT22;1238;47.994;7.854;2022-07-03T06:58:19;32.50;91.20
2453;DHT22;1238;47.994;7.854;2022-07-03T07:00:51;31.90;75.60
2453;DHT22;1238;47.994;7.854;2022-07-03T07:03:23;31.90;74.20
2453;DHT22;1238;47.994;7.854;2022-07-03T07:05:55;33.00;72.20
2453;DHT22;1238;47.994;7.854;2022-07-03T07:08:27;32.00;90.80
2453;DHT22;1238;47.994;7.854;2022-07-03T07:11:00;32.20;74.90
2453;DHT22;1238;47.994;7.854;2022-07-03T07:13:33;30.80;75.40
2453;DHT22;1238;47.994;7.854;2022-07-03T07:16:06;30.80;74.40
2453;DHT22;1238;47.994;7.854;2022-07-03T07:18:42;30.20;75.50
2453;DHT22;1238;47.994;7.854;2022-07-03T07:21:15;29.90;76.00
2453;DHT22;1238;47.994;7.854;2022-07-03T07:23:47;29.40;76.00
2453;DHT22;1238;47.994;7.854;2022-07-03T07:26:19;30.00;74.30
2453;DHT22;1238;47.994;7.854;2022-07-03T07:28:52;30.60;73.00
2453;DHT22;1238;47.994;7.854;2022-07-03T07:31:24;29.50;75.50
2453;DHT22;1238;47.994;7.854;2022-07-03T07:33:56;30.10;74.20
2453;DHT22;1238;47.994;7.854;2022-07-03T07:36:28;30.30;74.90
2453;DHT22;1238;47.994;7.854;2022-07-03T07:39:00;30.10;71.90
2453;DHT22;1238;47.994;7.854;2022-07-03T07:41:33;30.30;72.90
2453;DHT22;1238;47.994;7.854;2022-07-03T07:44:05;30.00;74.50
2453;DHT22;1238;47.994;7.854;2022-07-03T07:46:37;30.20;73.70
2453;DHT22;1238;47.994;7.854;2022-07-03T07:49:09;31.20;70.30
2453;DHT22;1238;47.994;7.854;2022-07-03T07:51:41;31.40;67.80
2453;DHT22;1238;47.994;7.854;2022-07-03T07:54:13;31.40;69.50
2453;DHT22;1238;47.994;7.854;2022-07-03T07:56:46;30.30;73.90
2453;DHT22;1238;47.994;7.854;2022-07-03T07:59:18;30.10;72.80
2453;DHT22;1238;47.994;7.854;2022-07-03T08:01:50;30.90;70.10
2453;DHT22;1238;47.994;7.854;2022-07-03T08:04:41;33.10;67.80
2453;DHT22;1238;47.994;7.854;2022-07-03T08:07:31;32.30;65.70
2453;DHT22;1238;47.994;7.854;2022-07-03T08:10:03;32.10;67.20
2453;DHT22;1238;47.994;7.854;2022-07-03T08:12:36;33.30;64.90
2453;DHT22;1238;47.994;7.854;2022-07-03T08:15:08;31.90;68.40
2453;DHT22;1238;47.994;7.854;2022-07-03T08:17:40;33.70;85.20
2453;DHT22;1238;47.994;7.854;2022-07-03T08:20:12;33.70;64.30
2453;DHT22;1238;47.994;7.854;2022-07-03T08:22:44;33.10;63.40
2453;DHT22;1238;47.994;7.854;2022-07-03T08:25:17;34.30;62.30
2453;DHT22;1238;47.994;7.854;2022-07-03T08:27:49;33.60;68.50
2453;DHT22;1238;47.994;7.854;2022-07-03T08:30:22;32.40;66.30
2453;DHT22;1238;47.994;7.854;2022-07-03T08:32:56;32.80;71.50
2453;DHT22;1238;47.994;7.854;2022-07-03T08:35:28;31.90;66.80
2453;DHT22;1238;47.994;7.854;2022-07-03T08:38:01;32.90;71.40
2453;DHT22;1238;47.994;7.854;2022-07-03T08:40:34;31.70;67.80
2453;DHT22;1238;47.994;7.854;2022-07-03T08:43:06;32.70;71.00
2453;DHT22;1238;47.994;7.854;2022-07-03T08:45:39;33.50;68.70
2453;DHT22;1238;47.994;7.854;2022-07-03T08:48:13;33.80;62.70
2453;DHT22;1238;47.994;7.854;2022-07-03T08:50:50;32.70;60.90
2453;DHT22;1238;47.994;7.854;2022-07-03T08:53:25;33.40;58.00
2453;DHT22;1238;47.994;7.854;2022-07-03T08:56:00;32.70;58.20
2453;DHT22;1238;47.994;7.854;2022-07-03T08:58:32;33.00;58.50
2453;DHT22;1238;47.994;7.854;2022-07-03T09:01:04;33.00;59.80
2453;DHT22;1238;47.994;7.854;2022-07-03T09:03:37;33.70;58.90
2453;DHT22;1238;47.994;7.854;2022-07-03T09:06:12;33.70;59.30
2453;DHT22;1238;47.994;7.854;2022-07-03T09:08:47;33.20;59.10
2453;DHT22;1238;47.994;7.854;2022-07-03T09:11:19;34.00;58.30
2453;DHT22;1238;47.994;7.854;2022-07-03T09:13:52;33.60;57.50
2453;DHT22;1238;47.994;7.854;2022-07-03T09:16:26;33.50;56.60
2453;DHT22;1238;47.994;7.854;2022-07-03T09:18:58;33.30;58.80
2453;DHT22;1238;47.994;7.854;2022-07-03T09:21:39;34.60;57.40
2453;DHT22;1238;47.994;7.854;2022-07-03T09:24:11;34.50;58.10
2453;DHT22;1238;47.994;7.854;2022-07-03T09:26:51;33.50;59.30
2453;DHT22;1238;47.994;7.854;2022-07-03T09:29:24;33.60;61.60
2453;DHT22;1238;47.994;7.854;2022-07-03T09:31:56;34.10;58.00
2453;DHT22;1238;47.994;7.854;2022-07-03T09:34:28;34.20;58.90
2453;DHT22;1238;47.994;7.854;2022-07-03T09:37:00;34.00;57.20
2453;DHT22;1238;47.994;7.854;2022-07-03T09:39:32;34.70;57.30
2453;DHT22;1238;47.994;7.854;2022-07-03T09:42:09;33.80;56.10
2453;DHT22;1238;47.994;7.854;2022-07-03T09:44:43;33.90;54.50
2453;DHT22;1238;47.994;7.854;2022-07-03T09:47:22;33.40;54.40
2453;DHT22;1238;47.994;7.854;2022-07-03T09:50:00;32.90;57.00
2453;DHT22;1238;47.994;7.854;2022-07-03T09:52:43;33.30;57.40
2453;DHT22;1238;47.994;7.854;2022-07-03T09:55:19;33.70;55.50
2453;DHT22;1238;47.994;7.854;2022-07-03T10:00:25;34.10;55.20
2453;DHT22;1238;47.994;7.854;2022-07-03T10:05:39;35.00;54.90
2453;DHT22;1238;47.994;7.854;2022-07-03T10:08:13;34.70;54.60
2453;DHT22;1238;47.994;7.854;2022-07-03T10:10:48;35.00;53.30
2453;DHT22;1238;47.994;7.854;2022-07-03T10:13:21;35.20;52.90
2453;DHT22;1238;47.994;7.854;2022-07-03T10:15:54;35.40;53.20
2453;DHT22;1238;47.994;7.854;2022-07-03T10:18:30;34.70;52.60
2453;DHT22;1238;47.994;7.854;2022-07-03T10:21:06;33.90;53.30
2453;DHT22;1238;47.994;7.854;2022-07-03T10:23:38;33.40;54.20
2453;DHT22;1238;47.994;7.854;2022-07-03T10:26:17;34.40;53.10
2453;DHT22;1238;47.994;7.854;2022-07-03T10:28:50;35.40;53.20
2453;DHT22;1238;47.994;7.854;2022-07-03T10:31:24;33.10;54.30
2453;DHT22;1238;47.994;7.854;2022-07-03T10:33:57;33.70;54.30
2453;DHT22;1238;47.994;7.854;2022-07-03T10:36:30;33.60;53.30
2453;DHT22;1238;47.994;7.854;2022-07-03T10:39:05;34.10;52.70
2453;DHT22;1238;47.994;7.854;2022-07-03T10:41:41;33.50;53.80
2453;DHT22;1238;47.994;7.854;2022-07-03T10:44:33;33.70;52.20
2453;DHT22;1238;47.994;7.854;2022-07-03T10:47:49;33.90;52.00
2453;DHT22;1238;47.994;7.854;2022-07-03T10:50:23;34.10;52.30
2453;DHT22;1238;47.994;7.854;2022-07-03T10:53:22;33.60;53.50
2453;DHT22;1238;47.994;7.854;2022-07-03T10:56:04;33.50;51.80
2453;DHT22;1238;47.994;7.854;2022-07-03T11:04:00;33.70;51.70
2453;DHT22;1238;47.994;7.854;2022-07-03T11:09:15;32.80;52.90
2453;DHT22;1238;47.994;7.854;2022-07-03T11:11:47;33.10;54.30
2453;DHT22;1238;47.994;7.854;2022-07-03T11:14:31;33.00;54.00
2453;DHT22;1238;47.994;7.854;2022-07-03T11:17:17;33.00;53.70
2453;DHT22;1238;47.994;7.854;2022-07-03T11:19:54;33.60;53.70
2453;DHT22;1238;47.994;7.854;2022-07-03T11:23:00;32.90;53.60
2453;DHT22;1238;47.994;7.854;2022-07-03T11:25:42;32.30;54.40
2453;DHT22;1238;47.994;7.854;2022-07-03T11:36:31;31.60;56.80
2453;DHT22;1238;47.994;7.854;2022-07-03T11:39:08;31.80;56.90
2453;DHT22;1238;47.994;7.854;2022-07-03T11:44:18;33.00;57.40
2453;DHT22;1238;47.994;7.854;2022-07-03T11:46:52;32.40;56.50
2453;DHT22;1238;47.994;7.854;2022-07-03T11:49:24;31.80;56.60
2453;DHT22;1238;47.994;7.854;2022-07-03T11:52:01;32.40;57.20
2453;DHT22;1238;47.994;7.854;2022-07-03T11:54:50;32.00;57.20
2453;DHT22;1238;47.994;7.854;2022-07-03T11:57:23;32.30;57.40
2453;DHT22;1238;47.994;7.854;2022-07-03T12:00:05;32.50;57.40
2453;DHT22;1238;47.994;7.854;2022-07-03T12:02:50;32.60;56.80
2453;DHT22;1238;47.994;7.854;2022-07-03T12:05:22;32.70;57.20
2453;DHT22;1238;47.994;7.854;2022-07-03T12:08:04;32.90;56.80
2453;DHT22;1238;47.994;7.854;2022-07-03T12:10:38;33.00;56.10
2453;DHT22;1238;47.994;7.854;2022-07-03T12:13:21;32.90;56.20
2453;DHT22;1238;47.994;7.854;2022-07-03T12:15:54;32.70;56.80
2453;DHT22;1238;47.994;7.854;2022-07-03T12:18:26;32.60;57.20
2453;DHT22;1238;47.994;7.854;2022-07-03T12:21:04;32.30;57.50
2453;DHT22;1238;47.994;7.854;2022-07-03T12:23:48;31.50;58.10
2453;DHT22;1238;47.994;7.854;2022-07-03T12:26:31;32.00;58.70
2453;DHT22;1238;47.994;7.854;2022-07-03T12:29:07;32.20;57.40
2453;DHT22;1238;47.994;7.854;2022-07-03T12:31:45;33.10;57.20
2453;DHT22;1238;47.994;7.854;2022-07-03T12:34:17;32.90;56.80
2453;DHT22;1238;47.994;7.854;2022-07-03T12:37:00;32.70;56.40
2453;DHT22;1238;47.994;7.854;2022-07-03T12:39:46;32.70;57.40
2453;DHT22;1238;47.994;7.854;2022-07-03T12:42:20;33.10;56.70
2453;DHT22;1238;47.994;7.854;2022-07-03T12:47:29;33.20;56.90
2453;DHT22;1238;47.994;7.854;2022-07-03T12:50:04;33.20;56.30
2453;DHT22;1238;47.994;7.854;2022-07-03T12:52:54;33.10;56.30
2453;DHT22;1238;47.994;7.854;2022-07-03T12:55:28;33.00;56.30
2453;DHT22;1238;47.994;7.854;2022-07-03T12:58:11;33.00;56.20
2453;DHT22;1238;47.994;7.854;2022-07-03T13:01:02;33.40;56.50
2453;DHT22;1238;47.994;7.854;2022-07-03T13:03:36;32.40;55.80
2453;DHT22;1238;47.994;7.854;2022-07-03T13:06:13;32.30;56.40
2453;DHT22;1238;47.994;7.854;2022-07-03T13:08:54;32.30;56.40
2453;DHT22;1238;47.994;7.854;2022-07-03T13:11:41;32.20;54.60
2453;DHT22;1238;47.994;7.854;2022-07-03T13:14:15;32.30;53.20
2453;DHT22;1238;47.994;7.854;2022-07-03T13:16:49;32.30;54.60
2453;DHT22;1238;47.994;7.854;2022-07-03T13:19:24;32.40;55.30
2453;DHT22;1238;47.994;7.854;2022-07-03T13:21:57;32.20;55.50
2453;DHT22;1238;47.994;7.854;2022-07-03T13:24:30;33.00;56.50
2453;DHT22;1238;47.994;7.854;2022-07-03T13:27:02;33.20;54.80
2453;DHT22;1238;47.994;7.854;2022-07-03T13:29:34;32.80;55.40
2453;DHT22;1238;47.994;7.854;2022-07-03T13:32:07;32.60;56.20
2453;DHT22;1238;47.994;7.854;2022-07-03T13:34:39;33.10;55.30
2453;DHT22;1238;47.994;7.854;2022-07-03T13:37:12;32.90;54.50
2453;DHT22;1238;47.994;7.854;2022-07-03T13:39:44;33.00;53.50
2453;DHT22;1238;47.994;7.854;2022-07-03T13:42:16;32.60;54.40
2453;DHT22;1238;47.994;7.854;2022-07-03T13:44:49;32.30;54.30
2453;DHT22;1238;47.994;7.854;2022-07-03T13:47:22;32.50;54.70
2453;DHT22;1238;47.994;7.854;2022-07-03T13:49:54;32.20;55.20
2453;DHT22;1238;47.994;7.854;2022-07-03T13:52:26;32.40;54.50
2453;DHT22;1238;47.994;7.854;2022-07-03T13:54:58;32.80;54.20
2453;DHT22;1238;47.994;7.854;2022-07-03T13:57:30;33.00;54.30
2453;DHT22;1238;47.994;7.854;2022-07-03T14:00:04;32.90;53.40
2453;DHT22;1238;47.994;7.854;2022-07-03T14:02:40;32.50;54.60
2453;DHT22;1238;47.994;7.854;2022-07-03T14:05:12;32.50;55.70
2453;DHT22;1238;47.994;7.854;2022-07-03T14:07:44;32.70;55.70
2453;DHT22;1238;47.994;7.854;2022-07-03T14:10:16;32.30;55.50
2453;DHT22;1238;47.994;7.854;2022-07-03T14:12:49;32.50;56.00
2453;DHT22;1238;47.994;7.854;2022-07-03T14:15:21;32.10;55.60
2453;DHT22;1238;47.994;7.854;2022-07-03T14:17:53;31.80;56.10
2453;DHT22;1238;47.994;7.854;2022-07-03T14:20:26;31.80;57.60
2453;DHT22;1238;47.994;7.854;2022-07-03T14:22:58;31.60;57.90
2453;DHT22;1238;47.994;7.854;2022-07-03T14:25:30;32.10;57.80
2453;DHT22;1238;47.994;7.854;2022-07-03T14:28:02;31.80;57.50
2453;DHT22;1238;47.994;7.854;2022-07-03T14:30:53;32.20;57.10
2453;DHT22;1238;47.994;7.854;2022-07-03T14:33:44;32.00;53.90
2453;DHT22;1238;47.994;7.854;2022-07-03T14:36:16;31.70;56.50
2453;DHT22;1238;47.994;7.854;2022-07-03T14:39:09;31.70;57.00
2453;DHT22;1238;47.994;7.854;2022-07-03T14:41:42;31.70;57.00
2453;DHT22;1238;47.994;7.854;2022-07-03T14:44:15;31.50;56.60
2453;DHT22;1238;47.994;7.854;2022-07-03T14:46:47;31.60;57.30
2453;DHT22;1238;47.994;7.854;2022-07-03T14:49:19;31.70;56.20
2453;DHT22;1238;47.994;7.854;2022-07-03T14:51:51;31.70;56.60
2453;DHT22;1238;47.994;7.854;2022-07-03T14:54:24;31.80;56.90
2453;DHT22;1238;47.994;7.854;2022-07-03T14:56:57;32.30;56.80
2453;DHT22;1238;47.994;7.854;2022-07-03T14:59:53;31.90;56.70
2453;DHT22;1238;47.994;7.854;2022-07-03T15:02:33;31.70;57.10
2453;DHT22;1238;47.994;7.854;2022-07-03T15:05:11;31.30;57.50
2453;DHT22;1238;47.994;7.854;2022-07-03T15:07:56;32.10;58.00
2453;DHT22;1238;47.994;7.854;2022-07-03T15:10:35;32.30;56.00
2453;DHT22;1238;47.994;7.854;2022-07-03T15:13:09;32.60;54.50
2453;DHT22;1238;47.994;7.854;2022-07-03T15:15:42;32.00;54.60
2453;DHT22;1238;47.994;7.854;2022-07-03T15:18:18;31.50;55.80
2453;DHT22;1238;47.994;7.854;2022-07-03T15:20:52;31.70;56.70
2453;DHT22;1238;47.994;7.854;2022-07-03T15:23:25;31.50;56.90
2453;DHT22;1238;47.994;7.854;2022-07-03T15:25:59;31.40;57.20
2453;DHT22;1238;47.994;7.854;2022-07-03T15:28:32;31.40;57.50
2453;DHT22;1238;47.994;7.854;2022-07-03T15:31:06;31.60;57.60
2453;DHT22;1238;47.994;7.854;2022-07-03T15:33:38;31.50;57.30
2453;DHT22;1238;47.994;7.854;2022-07-03T15:36:10;31.70;56.30
2453;DHT22;1238;47.994;7.854;2022-07-03T15:38:54;31.50;56.90
2453;DHT22;1238;47.994;7.854;2022-07-03T15:41:39;31.50;57.00
2453;DHT22;1238;47.994;7.854;2022-07-03T15:50:03;31.70;56.20
2453;DHT22;1238;47.994;7.854;2022-07-03T15:52:36;31.60;57.00
2453;DHT22;1238;47.994;7.854;2022-07-03T15:55:11;32.10;57.80
2453;DHT22;1238;47.994;7.854;2022-07-03T15:57:57;31.80;57.90
2453;DHT22;1238;47.994;7.854;2022-07-03T16:00:35;31.70;57.90
2453;DHT22;1238;47.994;7.854;2022-07-03T16:03:28;31.90;58.40
2453;DHT22;1238;47.994;7.854;2022-07-03T16:06:03;31.90;58.20
2453;DHT22;1238;47.994;7.854;2022-07-03T16:08:37;31.70;57.80
2453;DHT22;1238;47.994;7.854;2022-07-03T16:11:15;31.40;58.70
2453;DHT22;1238;47.994;7.854;2022-07-03T16:13:49;31.80;59.60
2453;DHT22;1238;47.994;7.854;2022-07-03T16:16:25;31.70;59.50
2453;DHT22;1238;47.994;7.854;2022-07-03T16:19:03;31.60;59.70
2453;DHT22;1238;47.994;7.854;2022-07-03T16:21:36;31.10;60.70
2453;DHT22;1238;47.994;7.854;2022-07-03T16:24:10;31.00;61.10
2453;DHT22;1238;47.994;7.854;2022-07-03T16:26:42;30.90;61.60
2453;DHT22;1238;47.994;7.854;2022-07-03T16:29:15;31.30;61.70
2453;DHT22;1238;47.994;7.854;2022-07-03T16:31:49;30.90;61.40
2453;DHT22;1238;47.994;7.854;2022-07-03T16:34:25;31.10;62.10
2453;DHT22;1238;47.994;7.854;2022-07-03T16:36:58;31.00;62.10
2453;DHT22;1238;47.994;7.854;2022-07-03T16:39:36;31.10;61.30
2453;DHT22;1238;47.994;7.854;2022-07-03T16:42:10;30.90;61.90
2453;DHT22;1238;47.994;7.854;2022-07-03T16:44:45;31.30;61.90
2453;DHT22;1238;47.994;7.854;2022-07-03T16:47:17;31.10;61.80
2453;DHT22;1238;47.994;7.854;2022-07-03T16:49:53;31.00;61.90
2453;DHT22;1238;47.994;7.854;2022-07-03T16:52:27;30.80;61.50
2453;DHT22;1238;47.994;7.854;2022-07-03T16:55:00;30.70;61.80
2453;DHT22;1238;47.994;7.854;2022-07-03T16:57:37;30.60;62.70
2453;DHT22;1238;47.994;7.854;2022-07-03T17:00:16;30.60;62.10
2453;DHT22;1238;47.994;7.854;2022-07-03T17:02:50;30.90;63.00
2453;DHT22;1238;47.994;7.854;2022-07-03T17:05:25;31.20;62.50
2453;DHT22;1238;47.994;7.854;2022-07-03T17:07:58;31.20;61.60
2453;DHT22;1238;47.994;7.854;2022-07-03T17:10:40;30.80;62.00
2453;DHT22;1238;47.994;7.854;2022-07-03T17:13:12;30.90;62.60
2453;DHT22;1238;47.994;7.854;2022-07-03T17:15:46;31.00;62.60
2453;DHT22;1238;47.994;7.854;2022-07-03T17:18:24;30.90;62.00
2453;DHT22;1238;47.994;7.854;2022-07-03T17:21:03;30.70;62.10
2453;DHT22;1238;47.994;7.854;2022-07-03T17:23:36;30.40;60.70
2453;DHT22;1238;47.994;7.854;2022-07-03T17:26:13;30.40;61.10
2453;DHT22;1238;47.994;7.854;2022-07-03T17:28:49;30.40;60.40
2453;DHT22;1238;47.994;7.854;2022-07-03T17:31:23;30.40;60.40
2453;DHT22;1238;47.994;7.854;2022-07-03T17:34:01;30.60;60.50
2453;DHT22;1238;47.994;7.854;2022-07-03T17:36:35;30.00;60.10
2453;DHT22;1238;47.994;7.854;2022-07-03T17:39:07;30.00;61.10
2453;DHT22;1238;47.994;7.854;2022-07-03T17:41:40;30.00;60.90
2453;DHT22;1238;47.994;7.854;2022-07-03T17:44:18;30.00;61.20
2453;DHT22;1238;47.994;7.854;2022-07-03T17:46:52;30.00;61.60
2453;DHT22;1238;47.994;7.854;2022-07-03T17:49:26;30.00;61.50
2453;DHT22;1238;47.994;7.854;2022-07-03T17:52:00;30.00;61.70
2453;DHT22;1238;47.994;7.854;2022-07-03T17:54:33;29.50;60.90
2453;DHT22;1238;47.994;7.854;2022-07-03T17:57:06;30.10;61.80
2453;DHT22;1238;47.994;7.854;2022-07-03T17:59:58;29.90;61.90
2453;DHT22;1238;47.994;7.854;2022-07-03T18:02:30;29.90;62.40
2453;DHT22;1238;47.994;7.854;2022-07-03T18:05:04;29.90;63.00
2453;DHT22;1238;47.994;7.854;2022-07-03T18:11:04;29.90;63.10
2453;DHT22;1238;47.994;7.854;2022-07-03T18:13:47;30.00;63.00